Time;durP1;ratioP1;P1;durP2;ratioP2;P2;SDS_P1;SDS_P2;PMS_P1;PMS_P2;Temp;Humidity;BMP_temperature;BMP_pressure;BME280_temperature;BME280_humidity;BME280_pressure;Samples;Min_cycle;Max_cycle;Signal;HPM_P1;HPM_P2
2022/03/03 00:01:49;;;;;;;14.15;5.13;;;12.40;50.90;;;;;;6251041;28;20044;-68
2022/03/03 00:04:50;;;;;;;10.90;5.15;;;12.40;51.00;;;;;;6250297;28;20037;-68
2022/03/03 00:07:52;;;;;;;22.77;5.47;;;12.40;51.10;;;;;;6248962;28;20037;-68
2022/03/03 00:10:54;;;;;;;16.17;5.45;;;12.30;50.90;;;;;;6249178;28;20037;-68
2022/03/03 00:13:55;;;;;;;13.50;5.15;;;12.40;51.00;;;;;;6249810;28;20041;-68
2022/03/03 00:16:56;;;;;;;12.25;5.85;;;12.30;51.00;;;;;;6250314;28;20037;-68
2022/03/03 00:19:57;;;;;;;13.00;4.55;;;12.30;51.00;;;;;;6249126;28;20044;-68
2022/03/03 00:22:58;;;;;;;20.55;6.28;;;12.30;51.10;;;;;;6248932;28;20037;-68
2022/03/03 00:25:59;;;;;;;11.43;5.55;;;12.30;51.10;;;;;;6249120;28;20029;-68
2022/03/03 00:29:00;;;;;;;11.52;5.43;;;12.30;51.20;;;;;;6249066;28;20041;-68
2022/03/03 00:32:02;;;;;;;18.27;6.47;;;12.30;51.20;;;;;;6249336;28;20340;-68
2022/03/03 00:35:03;;;;;;;12.98;5.97;;;12.30;51.20;;;;;;6244518;28;20052;-68
2022/03/03 00:38:04;;;;;;;14.80;5.72;;;12.30;51.20;;;;;;6248515;28;20033;-68
2022/03/03 00:41:05;;;;;;;11.02;5.28;;;12.30;51.20;;;;;;6247418;28;20037;-68
2022/03/03 00:44:06;;;;;;;13.85;6.13;;;12.30;51.20;;;;;;6249742;28;20049;-68
2022/03/03 00:47:07;;;;;;;12.95;5.65;;;12.30;51.20;;;;;;6249966;28;20053;-68
2022/03/03 00:50:08;;;;;;;21.23;6.50;;;12.40;51.30;;;;;;6226264;28;20198;-69
2022/03/03 00:53:09;;;;;;;13.23;6.70;;;12.40;51.30;;;;;;6231617;28;20030;-68
2022/03/03 00:56:10;;;;;;;16.33;5.55;;;12.40;51.30;;;;;;6228742;28;20103;-69
2022/03/03 00:59:11;;;;;;;19.80;7.32;;;12.50;51.40;;;;;;6272209;28;20072;-68
2022/03/03 01:02:12;;;;;;;16.65;6.18;;;12.40;51.40;;;;;;6274172;28;20183;-69
2022/03/03 01:05:13;;;;;;;15.32;6.57;;;12.30;51.40;;;;;;6274117;28;20040;-68
2022/03/03 01:08:14;;;;;;;15.35;6.45;;;12.30;51.50;;;;;;6249101;28;20390;-68
2022/03/03 01:11:15;;;;;;;17.42;6.63;;;12.20;51.50;;;;;;6275964;28;20474;-68
2022/03/03 01:14:21;;;;;;;21.20;6.65;;;12.20;51.60;;;;;;6278883;28;20083;-68
2022/03/03 01:17:22;;;;;;;20.02;7.40;;;12.20;51.50;;;;;;6277422;28;20033;-68
2022/03/03 01:20:23;;;;;;;18.17;7.22;;;12.20;51.50;;;;;;6276703;28;20072;-68
2022/03/03 01:23:24;;;;;;;15.90;7.15;;;12.20;51.40;;;;;;6250283;28;20084;-68
2022/03/03 01:26:25;;;;;;;19.15;6.68;;;12.20;51.50;;;;;;6233000;28;20481;-68
2022/03/03 01:29:26;;;;;;;22.70;8.00;;;12.30;51.60;;;;;;6249020;28;20037;-69
2022/03/03 01:32:27;;;;;;;25.52;7.78;;;12.20;51.60;;;;;;6256439;28;20052;-69
2022/03/03 01:35:27;;;;;;;25.85;8.52;;;12.30;51.60;;;;;;6272767;28;20041;-69
2022/03/03 01:38:28;;;;;;;18.45;6.75;;;12.30;51.70;;;;;;6248596;28;20099;-69
2022/03/03 01:41:29;;;;;;;15.07;5.90;;;12.30;51.70;;;;;;6249597;28;20034;-68
2022/03/03 01:44:30;;;;;;;18.08;6.80;;;12.20;51.70;;;;;;6232693;28;20053;-68
2022/03/03 01:47:32;;;;;;;27.45;7.97;;;12.20;51.80;;;;;;6249452;28;20039;-68
2022/03/03 01:50:32;;;;;;;15.27;6.72;;;12.20;51.80;;;;;;6249402;28;20041;-68
2022/03/03 01:53:33;;;;;;;13.23;6.00;;;12.10;51.70;;;;;;6248896;28;20397;-68
2022/03/03 01:56:35;;;;;;;18.40;6.07;;;12.10;51.70;;;;;;6256173;28;20132;-69
2022/03/03 01:59:37;;;;;;;12.90;6.10;;;12.00;51.70;;;;;;6273898;28;20067;-68
2022/03/03 02:02:39;;;;;;;13.07;5.85;;;12.00;51.50;;;;;;6231660;28;20482;-68
2022/03/03 02:05:40;;;;;;;9.25;4.80;;;12.00;51.60;;;;;;6272530;28;20533;-68
2022/03/03 02:08:41;;;;;;;20.42;6.72;;;12.00;51.50;;;;;;6263405;28;20090;-68
2022/03/03 02:11:46;;;;;;;14.55;6.20;;;12.00;51.50;;;;;;6247766;28;20417;-68
2022/03/03 02:14:49;;;;;;;9.57;5.30;;;11.90;51.50;;;;;;6247991;28;20116;-68
2022/03/03 02:17:50;;;;;;;11.63;5.35;;;11.90;51.50;;;;;;6248960;28;20108;-68
2022/03/03 02:20:51;;;;;;;13.80;5.53;;;11.90;51.50;;;;;;6256537;28;20087;-68
2022/03/03 02:23:51;;;;;;;15.50;5.68;;;11.90;51.40;;;;;;6271343;28;20108;-68
2022/03/03 02:26:53;;;;;;;16.30;6.30;;;11.90;51.40;;;;;;6246765;28;20548;-68
2022/03/03 02:29:55;;;;;;;13.85;5.85;;;11.90;51.40;;;;;;6272246;28;20035;-68
2022/03/03 02:32:56;;;;;;;13.93;5.65;;;11.90;51.40;;;;;;6255614;28;20087;-68
2022/03/03 02:36:23;;;;;;;13.60;6.10;;;11.90;52.10;;;;;;6272481;28;20036;-68
2022/03/03 02:39:24;;;;;;;15.07;5.50;;;11.90;51.50;;;;;;6265621;28;20443;-68
2022/03/03 02:42:25;;;;;;;9.70;4.55;;;11.80;51.40;;;;;;6269551;28;20060;-68
2022/03/03 02:45:26;;;;;;;14.02;5.82;;;11.80;51.50;;;;;;6270564;28;20075;-68
2022/03/03 02:48:27;;;;;;;11.48;5.28;;;11.80;51.50;;;;;;6270614;28;20382;-68
2022/03/03 02:51:28;;;;;;;12.00;5.22;;;11.80;51.50;;;;;;6269673;28;20094;-68
2022/03/03 02:54:28;;;;;;;13.20;5.45;;;11.80;51.50;;;;;;6270796;28;20063;-68
2022/03/03 03:00:49;;;;;;;17.30;6.45;;;11.80;51.50;;;;;;6263457;28;20059;-68
2022/03/03 03:03:50;;;;;;;18.35;5.30;;;11.80;51.50;;;;;;6269041;28;20120;-68
2022/03/03 03:06:51;;;;;;;12.80;5.53;;;11.70;51.50;;;;;;6256636;28;20103;-68
2022/03/03 03:09:51;;;;;;;10.75;4.82;;;11.70;51.50;;;;;;6272094;28;20469;-68
2022/03/03 03:12:52;;;;;;;8.13;4.88;;;11.70;51.50;;;;;;6274522;28;20112;-68
2022/03/03 03:15:54;;;;;;;16.65;6.18;;;11.80;51.50;;;;;;6272547;28;20116;-68
2022/03/03 03:18:55;;;;;;;11.95;5.82;;;11.70;51.50;;;;;;6249494;28;20034;-68
2022/03/03 03:21:56;;;;;;;11.25;5.40;;;11.80;51.60;;;;;;6247687;28;20052;-68
2022/03/03 03:24:56;;;;;;;14.32;5.88;;;11.80;51.60;;;;;;6247620;28;20036;-68
2022/03/03 03:27:57;;;;;;;11.68;5.43;;;11.70;51.50;;;;;;6248092;28;20033;-67
2022/03/03 03:30:58;;;;;;;10.18;5.10;;;11.70;51.40;;;;;;6249446;28;20044;-68
2022/03/03 03:33:59;;;;;;;16.08;6.32;;;11.70;51.40;;;;;;6248937;28;20029;-69
2022/03/03 03:37:00;;;;;;;13.85;5.47;;;11.60;51.40;;;;;;6247739;28;20033;-69
2022/03/03 03:40:01;;;;;;;13.25;5.60;;;11.60;51.50;;;;;;6266952;28;20044;-68
2022/03/03 03:43:02;;;;;;;16.70;5.28;;;11.60;51.60;;;;;;6273081;28;20080;-68
2022/03/03 03:46:03;;;;;;;11.80;5.88;;;11.60;51.70;;;;;;6272564;28;20051;-68
2022/03/03 03:49:05;;;;;;;13.45;5.30;;;11.50;51.80;;;;;;6272278;28;20037;-68
2022/03/03 03:52:06;;;;;;;12.40;6.00;;;11.50;51.90;;;;;;6273369;28;20033;-69
2022/03/03 03:55:10;;;;;;;16.92;6.55;;;11.50;52.00;;;;;;6271758;28;20045;-68
2022/03/03 03:58:11;;;;;;;12.82;6.30;;;11.50;52.10;;;;;;6264562;28;20051;-68
2022/03/03 04:01:12;;;;;;;12.65;6.13;;;11.50;52.20;;;;;;6285815;28;20048;-68
2022/03/03 04:04:13;;;;;;;14.90;5.82;;;11.50;52.40;;;;;;6271961;28;20048;-68
2022/03/03 04:07:13;;;;;;;19.33;6.18;;;11.50;52.60;;;;;;6259617;28;20374;-68
2022/03/03 04:10:14;;;;;;;18.88;6.55;;;11.50;52.80;;;;;;6241247;28;20041;-68
2022/03/03 04:13:15;;;;;;;12.05;6.40;;;11.50;52.90;;;;;;6247026;28;20061;-68
2022/03/03 04:16:16;;;;;;;19.30;6.70;;;11.40;52.90;;;;;;6248082;28;21140;-68
2022/03/03 04:19:17;;;;;;;12.00;6.32;;;11.40;53.10;;;;;;6247356;28;20105;-68
2022/03/03 04:22:18;;;;;;;16.25;7.40;;;11.30;53.20;;;;;;6246903;28;20042;-68
2022/03/03 04:25:19;;;;;;;22.63;8.65;;;11.30;53.40;;;;;;6246662;28;20410;-68
2022/03/03 04:28:20;;;;;;;23.15;9.77;;;11.20;53.50;;;;;;6246340;28;20485;-68
2022/03/03 04:31:21;;;;;;;17.52;8.43;;;11.20;53.50;;;;;;6247148;28;20052;-68
2022/03/03 04:34:21;;;;;;;17.23;8.50;;;11.20;53.40;;;;;;6256068;28;20112;-68
2022/03/03 04:37:22;;;;;;;20.40;7.50;;;11.20;53.30;;;;;;6246006;28;20129;-68
2022/03/03 04:40:23;;;;;;;29.95;7.68;;;11.30;53.30;;;;;;6247314;28;20029;-68
2022/03/03 04:43:24;;;;;;;17.92;8.07;;;11.30;53.20;;;;;;6246133;28;20033;-68
2022/03/03 04:46:25;;;;;;;21.20;6.97;;;11.30;53.30;;;;;;6247853;28;20058;-68
2022/03/03 04:49:26;;;;;;;20.15;8.25;;;11.20;53.30;;;;;;6246097;28;20045;-68
2022/03/03 04:52:27;;;;;;;20.95;8.32;;;11.20;53.50;;;;;;6247362;28;20481;-68
2022/03/03 04:55:28;;;;;;;26.80;10.93;;;11.10;53.50;;;;;;6246363;28;20132;-68
2022/03/03 04:58:29;;;;;;;23.33;10.88;;;11.10;53.60;;;;;;6247144;28;20340;-68
2022/03/03 05:01:30;;;;;;;25.20;9.85;;;11.10;53.60;;;;;;6245653;28;20039;-68
2022/03/03 05:04:31;;;;;;;19.92;8.68;;;11.00;53.60;;;;;;6270254;28;20442;-68
2022/03/03 05:07:33;;;;;;;19.88;10.52;;;11.00;53.70;;;;;;6253776;28;20045;-68
2022/03/03 05:10:34;;;;;;;27.20;11.13;;;10.90;53.80;;;;;;6268928;28;20047;-68
2022/03/03 05:13:35;;;;;;;23.48;10.13;;;10.90;54.00;;;;;;6270125;28;20033;-68
2022/03/03 05:16:36;;;;;;;22.98;8.65;;;10.80;54.10;;;;;;6271326;28;20434;-68
2022/03/03 05:19:37;;;;;;;18.77;8.75;;;10.80;54.10;;;;;;6269061;28;20044;-68
2022/03/03 05:22:39;;;;;;;20.92;9.48;;;10.70;54.20;;;;;;6270074;28;20064;-68
2022/03/03 05:25:39;;;;;;;22.60;8.73;;;10.70;54.30;;;;;;6269668;28;20040;-68
2022/03/03 05:28:41;;;;;;;20.58;8.02;;;10.70;54.40;;;;;;6270244;28;20119;-68
2022/03/03 05:31:41;;;;;;;16.55;7.60;;;10.70;54.30;;;;;;6269460;28;20033;-68
2022/03/03 05:34:42;;;;;;;18.90;8.70;;;10.70;54.40;;;;;;6245131;28;20120;-68
2022/03/03 05:37:46;;;;;;;20.23;7.82;;;10.70;54.30;;;;;;6246422;28;20064;-68
2022/03/03 05:40:46;;;;;;;22.10;9.02;;;10.70;54.30;;;;;;6244674;28;20099;-69
2022/03/03 05:43:47;;;;;;;20.98;8.48;;;10.70;54.20;;;;;;6246090;28;20352;-68
2022/03/03 05:46:48;;;;;;;19.52;7.43;;;10.80;54.30;;;;;;6246515;28;20111;-69
2022/03/03 05:49:52;;;;;;;19.35;8.52;;;10.70;54.30;;;;;;6239458;28;20128;-69
2022/03/03 05:52:54;;;;;;;20.63;8.38;;;10.70;54.30;;;;;;6264442;28;20060;-69
2022/03/03 05:55:58;;;;;;;24.10;8.23;;;10.80;54.40;;;;;;6270113;28;20037;-68
2022/03/03 05:59:05;;;;;;;19.70;8.02;;;10.70;55.10;;;;;;6269686;28;20032;-69
2022/03/03 06:02:06;;;;;;;22.08;8.73;;;10.70;54.60;;;;;;6267581;28;20466;-68
2022/03/03 06:05:08;;;;;;;17.85;8.23;;;10.70;54.60;;;;;;6245550;28;20045;-68
2022/03/03 06:08:17;;;;;;;29.20;8.27;;;10.70;54.70;;;;;;6246881;28;20122;-68
2022/03/03 06:11:20;;;;;;;;;;;10.60;54.70;;;;;;6249549;28;20454;-68
2022/03/03 06:14:35;;;;;;;23.23;9.77;;;10.60;54.90;;;;;;6270278;28;19916;-68
2022/03/03 06:17:39;;;;;;;29.70;10.80;;;10.50;55.00;;;;;;6271017;28;20394;-68
2022/03/03 06:20:44;;;;;;;24.52;10.02;;;10.50;55.20;;;;;;6270118;28;20071;-68
2022/03/03 06:23:45;;;;;;;24.80;10.25;;;10.40;55.30;;;;;;6248947;28;20033;-68
2022/03/03 06:26:47;;;;;;;21.50;9.85;;;10.40;55.40;;;;;;6263443;28;20064;-69
2022/03/03 06:29:49;;;;;;;21.65;9.07;;;10.40;55.50;;;;;;6248502;28;20411;-69
2022/03/03 06:32:49;;;;;;;17.30;8.45;;;10.40;55.60;;;;;;6261074;28;20458;-69
2022/03/03 06:35:51;;;;;;;21.08;9.45;;;10.40;55.70;;;;;;6244695;28;20037;-69
2022/03/03 06:38:52;;;;;;;20.27;9.70;;;10.40;55.70;;;;;;6252030;28;20354;-70
2022/03/03 06:41:53;;;;;;;24.10;9.15;;;10.30;55.70;;;;;;6258257;28;20033;-70
2022/03/03 06:44:54;;;;;;;17.45;8.65;;;10.40;55.80;;;;;;6233701;28;20041;-69
2022/03/03 06:47:56;;;;;;;20.90;9.35;;;10.40;55.80;;;;;;6250556;28;20037;-69
2022/03/03 06:51:02;;;;;;;21.27;8.52;;;10.40;55.90;;;;;;6247901;28;20053;-70
2022/03/03 06:54:05;;;;;;;18.08;8.75;;;10.40;55.90;;;;;;6244359;28;20041;-69
2022/03/03 06:57:08;;;;;;;26.48;12.32;;;10.40;56.10;;;;;;6245256;28;20041;-68
2022/03/03 07:00:11;;;;;;;26.65;10.15;;;10.50;55.70;;;;;;6244932;28;20050;-69
2022/03/03 07:03:12;;;;;;;19.23;9.60;;;10.60;55.60;;;;;;6258171;28;20064;-69
2022/03/03 07:06:13;;;;;;;21.50;10.07;;;10.70;55.50;;;;;;6268490;28;20072;-68
2022/03/03 07:09:15;;;;;;;22.13;10.23;;;10.80;55.40;;;;;;6268723;28;20377;-68
2022/03/03 07:12:18;;;;;;;24.40;10.85;;;10.90;55.30;;;;;;6266324;28;20032;-68
2022/03/03 07:15:19;;;;;;;20.67;9.95;;;10.90;55.10;;;;;;6277562;28;20067;-68
2022/03/03 07:18:24;;;;;;;21.10;10.40;;;11.00;55.10;;;;;;6243787;28;20487;-68
2022/03/03 07:21:39;;;;;;;22.98;10.18;;;11.10;55.00;;;;;;6241589;28;20033;-68
2022/03/03 07:25:03;;;;;;;30.88;10.07;;;11.10;55.50;;;;;;6242856;28;20033;-69
2022/03/03 07:28:08;;;;;;;24.63;8.52;;;11.10;54.80;;;;;;6225584;28;20033;-68
2022/03/03 07:31:09;;;;;;;20.63;8.00;;;11.00;54.80;;;;;;6243848;28;20041;-68
2022/03/03 07:34:13;;;;;;;21.10;8.10;;;11.00;54.80;;;;;;6240293;28;20109;-68
2022/03/03 07:37:18;;;;;;;25.30;7.90;;;11.00;54.90;;;;;;6242545;28;20108;-68
2022/03/03 07:40:19;;;;;;;23.70;8.23;;;11.00;55.00;;;;;;6261932;28;20033;-68
2022/03/03 07:43:20;;;;;;;19.15;9.07;;;11.00;55.00;;;;;;6250439;28;20030;-68
2022/03/03 07:46:22;;;;;;;28.10;9.27;;;11.10;54.90;;;;;;6264464;28;20467;-69
2022/03/03 07:49:25;;;;;;;21.20;8.43;;;11.10;54.70;;;;;;6268685;28;20045;-69
2022/03/03 07:52:26;;;;;;;26.17;9.25;;;11.20;54.70;;;;;;6272511;28;20028;-69
2022/03/03 07:55:29;;;;;;;18.88;8.60;;;11.30;54.50;;;;;;6271186;28;20171;-69
2022/03/03 07:58:33;;;;;;;18.10;9.20;;;11.50;54.30;;;;;;6248458;28;20462;-69
2022/03/03 08:01:35;;;;;;;25.00;9.88;;;11.60;54.00;;;;;;6272034;28;20029;-69
2022/03/03 08:04:40;;;;;;;29.27;11.80;;;11.80;53.70;;;;;;6272212;28;20045;-68
2022/03/03 08:07:43;;;;;;;40.00;11.18;;;11.90;53.30;;;;;;6272563;28;20473;-68
2022/03/03 08:10:45;;;;;;;22.80;10.15;;;12.10;53.60;;;;;;6270123;28;20059;-68
2022/03/03 08:13:50;;;;;;;23.13;9.68;;;12.30;52.80;;;;;;6270570;28;20086;-69
2022/03/03 08:16:51;;;;;;;21.13;9.45;;;12.40;52.40;;;;;;6272792;28;20033;-69
2022/03/03 08:19:56;;;;;;;20.05;9.27;;;12.50;52.20;;;;;;6269259;28;20071;-68
2022/03/03 08:23:00;;;;;;;24.92;8.57;;;12.60;52.00;;;;;;6273601;28;20061;-69
2022/03/03 08:26:02;;;;;;;20.90;9.52;;;12.70;51.70;;;;;;6255688;28;20123;-69
2022/03/03 08:29:03;;;;;;;26.40;9.27;;;12.80;51.60;;;;;;6272155;28;20037;-68
2022/03/03 08:32:10;;;;;;;25.17;10.05;;;12.90;51.30;;;;;;6271868;28;20060;-68
2022/03/03 08:35:13;;;;;;;23.47;9.83;;;13.00;51.20;;;;;;6273775;28;20454;-68
2022/03/03 08:38:22;;;;;;;22.10;9.48;;;13.10;51.00;;;;;;6272534;28;20354;-69
2022/03/03 08:41:23;;;;;;;31.92;10.35;;;13.20;50.60;;;;;;6273155;28;20055;-68
2022/03/03 08:44:32;;;;;;;22.85;9.18;;;13.30;50.40;;;;;;6273553;28;20037;-68
2022/03/03 08:47:33;;;;;;;;;;;13.40;50.30;;;;;;6274239;28;20473;-68
2022/03/03 08:50:38;;;;;;;24.17;9.05;;;13.40;50.10;;;;;;6272921;28;19974;-68
2022/03/03 08:53:38;;;;;;;22.33;10.05;;;13.50;49.60;;;;;;6273451;28;20048;-69
2022/03/03 08:56:39;;;;;;;19.55;8.55;;;13.40;49.70;;;;;;6273773;28;20443;-69
2022/03/03 08:59:40;;;;;;;24.67;9.65;;;13.50;49.60;;;;;;6272673;28;20040;-69
2022/03/03 09:02:43;;;;;;;19.17;8.90;;;13.40;49.10;;;;;;6272420;28;20033;-69
2022/03/03 09:05:44;;;;;;;30.35;9.30;;;13.40;49.10;;;;;;6271942;28;20052;-68
2022/03/03 09:08:45;;;;;;;20.88;9.13;;;13.40;49.30;;;;;;6270934;28;20058;-68
2022/03/03 09:11:46;;;;;;;22.88;9.43;;;13.50;49.40;;;;;;6273498;28;20536;-70
2022/03/03 09:14:47;;;;;;;21.70;9.18;;;13.60;49.20;;;;;;6271877;28;20088;-69
2022/03/03 09:17:48;;;;;;;20.92;9.15;;;13.70;48.80;;;;;;6271844;28;20029;-68
2022/03/03 09:20:49;;;;;;;28.33;9.65;;;13.80;48.70;;;;;;6271212;28;20441;-69
2022/03/03 09:23:50;;;;;;;24.25;9.40;;;13.80;48.50;;;;;;6255015;28;20037;-69
2022/03/03 09:26:52;;;;;;;26.50;10.82;;;13.90;48.50;;;;;;6272884;28;20542;-69
2022/03/03 09:29:52;;;;;;;27.00;10.88;;;14.00;48.40;;;;;;6272516;28;20441;-69
2022/03/03 09:32:53;;;;;;;22.77;10.02;;;14.00;48.40;;;;;;6271204;28;20044;-69
2022/03/03 09:35:54;;;;;;;20.50;9.55;;;14.10;48.40;;;;;;6272877;28;20033;-70
2022/03/03 09:38:55;;;;;;;23.83;9.55;;;14.10;48.30;;;;;;6279227;28;20361;-70
2022/03/03 09:41:56;;;;;;;21.70;9.90;;;14.30;48.10;;;;;;6297499;28;20040;-69
2022/03/03 09:44:58;;;;;;;20.05;9.13;;;14.30;48.00;;;;;;6294284;28;20032;-69
2022/03/03 09:48:03;;;;;;;23.73;8.60;;;14.40;47.90;;;;;;6272754;28;20029;-69
2022/03/03 09:51:04;;;;;;;24.90;10.48;;;14.50;47.50;;;;;;6272098;28;20037;-69
2022/03/03 09:54:08;;;;;;;21.15;9.35;;;14.50;47.40;;;;;;6270743;28;20175;-69
2022/03/03 09:57:10;;;;;;;22.02;9.25;;;14.50;47.40;;;;;;6271191;28;20057;-69
2022/03/03 10:00:12;;;;;;;19.85;9.82;;;14.60;47.40;;;;;;6271158;28;20080;-69
2022/03/03 10:03:18;;;;;;;20.30;8.73;;;14.60;47.30;;;;;;6270893;28;20362;-69
2022/03/03 10:06:22;;;;;;;18.33;8.38;;;14.70;46.90;;;;;;6271966;28;20410;-69
2022/03/03 10:09:24;;;;;;;24.35;11.50;;;14.70;46.80;;;;;;6270625;28;20037;-68
2022/03/03 10:12:30;;;;;;;23.95;9.07;;;14.80;46.80;;;;;;6270860;28;20045;-70
2022/03/03 10:15:32;;;;;;;19.40;9.10;;;14.90;46.80;;;;;;6271518;28;20452;-68
2022/03/03 10:18:33;;;;;;;20.23;8.80;;;15.00;46.60;;;;;;6271694;28;20128;-68
2022/03/03 10:21:38;;;;;;;31.17;8.75;;;15.00;46.30;;;;;;6249802;28;20381;-69
2022/03/03 10:24:43;;;;;;;24.90;8.32;;;14.90;46.30;;;;;;6270189;28;20029;-69
2022/03/03 10:27:44;;;;;;;22.35;8.27;;;14.90;46.30;;;;;;6271717;28;20081;-69
2022/03/03 10:30:53;;;;;;;21.80;8.80;;;14.90;46.00;;;;;;6270675;28;20036;-69
2022/03/03 10:33:53;;;;;;;;;;;15.00;45.80;;;;;;6271682;28;20047;-68
2022/03/03 10:37:06;;;;;;;20.77;8.18;;;15.10;45.50;;;;;;6272439;28;20314;-69
2022/03/03 10:40:11;;;;;;;19.20;8.05;;;15.50;45.00;;;;;;6271051;28;20347;-70
2022/03/03 10:43:12;;;;;;;24.67;8.68;;;15.80;44.40;;;;;;6271508;28;20053;-69
2022/03/03 10:46:13;;;;;;;20.67;7.95;;;16.20;43.80;;;;;;6272195;28;20327;-69
2022/03/03 10:49:22;;;;;;;23.30;8.65;;;16.40;43.20;;;;;;6254452;28;20041;-70
2022/03/03 10:52:29;;;;;;;33.40;14.70;;;16.70;42.90;;;;;;6272511;28;20048;-70
2022/03/03 10:55:30;;;;;;;44.83;16.95;;;16.90;42.30;;;;;;6253522;28;20474;-68
2022/03/03 10:58:46;;;;;;;27.67;10.63;;;17.20;41.90;;;;;;6271727;28;20035;-69
2022/03/03 11:01:47;;;;;;;28.42;8.27;;;17.50;41.20;;;;;;6271535;28;20032;-69
2022/03/03 11:04:48;;;;;;;24.48;8.43;;;17.70;40.40;;;;;;6270438;28;20041;-69
2022/03/03 11:07:50;;;;;;;16.92;7.97;;;17.80;40.00;;;;;;6270739;28;20060;-69
2022/03/03 11:10:50;;;;;;;18.40;7.55;;;18.00;39.60;;;;;;6268460;28;20076;-70
2022/03/03 11:13:53;;;;;;;10.10;6.30;;;18.10;38.90;;;;;;6271116;28;20523;-70
2022/03/03 11:16:54;;;;;;;19.08;7.03;;;18.20;39.00;;;;;;6270960;28;20129;-70
2022/03/03 11:19:59;;;;;;;15.63;6.40;;;18.30;38.40;;;;;;6270302;28;20110;-69
2022/03/03 11:23:00;;;;;;;11.00;5.88;;;18.60;37.30;;;;;;6270851;28;20033;-70
2022/03/03 11:26:01;;;;;;;13.70;7.18;;;18.70;36.60;;;;;;6272699;28;20033;-69
2022/03/03 11:29:10;;;;;;;16.15;7.35;;;18.90;36.20;;;;;;6275255;28;20029;-71
2022/03/03 11:32:15;;;;;;;15.23;7.70;;;19.10;36.10;;;;;;6273951;28;20127;-69
2022/03/03 11:35:16;;;;;;;16.15;8.35;;;19.30;35.50;;;;;;6258326;28;20052;-70
2022/03/03 11:38:17;;;;;;;17.70;7.63;;;19.50;35.20;;;;;;6274978;28;20373;-70
2022/03/03 11:41:23;;;;;;;17.45;7.40;;;19.80;34.60;;;;;;6274828;28;20062;-68
2022/03/03 11:44:34;;;;;;;17.63;7.40;;;20.00;34.50;;;;;;6275914;28;20425;-69
2022/03/03 11:47:37;;;;;;;20.65;7.30;;;20.20;34.40;;;;;;6275903;28;20074;-69
2022/03/03 11:50:39;;;;;;;16.25;7.15;;;20.60;34.00;;;;;;6275976;28;20102;-69
2022/03/03 11:53:49;;;;;;;16.73;6.90;;;21.00;33.20;;;;;;6275037;28;20101;-70
2022/03/03 11:57:06;;;;;;;15.88;6.88;;;21.50;31.80;;;;;;6274313;28;20060;-69
2022/03/03 12:00:08;;;;;;;16.30;6.40;;;22.00;30.80;;;;;;6275431;28;20044;-69
2022/03/03 12:03:17;;;;;;;11.73;5.90;;;22.40;29.90;;;;;;6258894;28;20041;-71
2022/03/03 12:06:23;;;;;;;19.98;6.68;;;22.60;29.60;;;;;;6274726;28;20041;-71
2022/03/03 12:09:30;;;;;;;15.18;6.97;;;22.90;29.60;;;;;;6248414;28;20439;-71
2022/03/03 12:12:32;;;;;;;17.73;8.05;;;23.10;29.40;;;;;;6241138;28;20042;-70
2022/03/03 12:15:33;;;;;;;20.85;6.63;;;23.40;29.00;;;;;;6250716;28;20041;-70
2022/03/03 12:18:36;;;;;;;11.98;6.80;;;23.80;28.80;;;;;;6251238;28;20040;-71
2022/03/03 12:21:41;;;;;;;21.83;6.72;;;24.10;28.40;;;;;;6266510;28;20041;-70
2022/03/03 12:24:42;;;;;;;11.52;6.45;;;24.60;27.90;;;;;;6250176;28;20215;-70
2022/03/03 12:28:18;;;;;;;11.85;6.70;;;24.90;27.30;;;;;;6246454;28;20092;-69
2022/03/03 12:31:22;;;;;;;17.98;8.25;;;25.10;26.90;;;;;;6251391;28;20056;-69
2022/03/03 12:34:22;;;;;;;19.77;7.20;;;25.20;26.80;;;;;;6274892;28;20044;-70
2022/03/03 12:37:23;;;;;;;22.02;7.43;;;25.50;26.60;;;;;;6275659;28;20474;-70
2022/03/03 12:40:28;;;;;;;21.33;6.38;;;25.70;26.40;;;;;;6274868;28;20408;-71
2022/03/03 12:43:48;;;;;;;13.57;6.80;;;26.10;26.40;;;;;;6259274;28;20044;-71
2022/03/03 12:46:49;;;;;;;18.52;6.45;;;26.60;26.10;;;;;;6249598;28;20053;-70
2022/03/03 12:49:51;;;;;;;17.73;5.78;;;27.10;25.60;;;;;;6261154;28;20075;-71
2022/03/03 12:53:03;;;;;;;14.60;6.25;;;27.40;25.00;;;;;;6263525;28;20041;-71
2022/03/03 12:56:06;;;;;;;12.98;6.43;;;27.70;24.70;;;;;;6247653;28;20168;-72
2022/03/03 12:59:07;;;;;;;15.05;6.45;;;27.50;24.10;;;;;;6246411;28;20030;-69
2022/03/03 13:02:08;;;;;;;9.45;5.55;;;26.70;24.60;;;;;;6248768;28;20061;-71
2022/03/03 13:05:08;;;;;;;14.82;6.53;;;25.90;25.10;;;;;;6248220;28;20051;-70
2022/03/03 13:08:30;;;;;;;15.73;5.53;;;25.20;25.80;;;;;;6226433;28;20029;-70
2022/03/03 13:11:31;;;;;;;19.45;6.95;;;25.00;26.10;;;;;;6220649;28;20030;-69
2022/03/03 13:14:33;;;;;;;15.15;6.22;;;25.00;26.00;;;;;;6222039;28;20333;-69
2022/03/03 13:17:34;;;;;;;13.85;6.10;;;24.60;26.20;;;;;;6223584;28;20038;-69
2022/03/03 13:20:51;;;;;;;16.80;6.00;;;24.10;26.70;;;;;;6213152;28;20060;-69
2022/03/03 13:24:11;;;;;;;13.00;6.53;;;23.50;27.20;;;;;;6221816;28;20034;-69
2022/03/03 13:27:12;;;;;;;18.88;6.70;;;23.00;27.80;;;;;;6239424;28;20104;-69
2022/03/03 13:30:14;;;;;;;14.02;6.30;;;22.50;28.30;;;;;;6246328;28;20046;-70
2022/03/03 13:33:15;;;;;;;13.20;6.45;;;22.10;28.70;;;;;;6244227;28;20060;-70
2022/03/03 13:36:27;;;;;;;18.48;6.88;;;21.80;29.10;;;;;;6270755;28;20068;-70
2022/03/03 13:39:30;;;;;;;17.60;6.30;;;21.50;29.40;;;;;;6270335;28;20104;-70
2022/03/03 13:42:31;;;;;;;14.57;7.15;;;21.30;29.70;;;;;;6269217;28;20037;-70
2022/03/03 13:45:38;;;;;;;13.85;6.07;;;21.00;29.90;;;;;;6244774;28;20042;-70
2022/03/03 13:48:39;;;;;;;16.17;7.20;;;20.90;30.10;;;;;;6264899;28;20044;-69
2022/03/03 13:52:01;;;;;;;22.35;7.28;;;20.70;30.40;;;;;;6271899;28;20095;-70
2022/03/03 13:55:07;;;;;;;13.77;6.95;;;20.50;30.60;;;;;;6270376;28;20086;-69
2022/03/03 13:58:08;;;;;;;12.80;6.07;;;20.40;30.90;;;;;;6271541;28;20408;-69
2022/03/03 14:01:09;;;;;;;16.63;6.80;;;20.30;31.10;;;;;;6253762;28;20399;-69
2022/03/03 14:04:16;;;;;;;14.82;7.10;;;20.20;31.30;;;;;;6270490;28;20040;-69
2022/03/03 14:07:27;;;;;;;12.68;6.65;;;20.10;31.60;;;;;;6269685;28;20442;-69
2022/03/03 14:10:48;;;;;;;16.08;6.38;;;20.10;31.70;;;;;;6267831;28;20098;-69
2022/03/03 14:13:55;;;;;;;17.45;6.88;;;20.00;31.90;;;;;;6268533;28;20124;-69
2022/03/03 14:16:56;;;;;;;20.17;6.95;;;19.90;32.00;;;;;;6270941;28;20041;-69
2022/03/03 14:19:56;;;;;;;17.90;6.88;;;19.90;32.10;;;;;;6270371;28;20098;-69
2022/03/03 14:22:58;;;;;;;20.63;7.35;;;19.90;32.10;;;;;;6271393;28;20055;-71
2022/03/03 14:26:01;;;;;;;16.55;7.40;;;19.80;32.20;;;;;;6270451;28;20044;-70
2022/03/03 14:29:02;;;;;;;14.48;7.03;;;19.90;32.20;;;;;;6270750;28;20120;-70
2022/03/03 14:32:03;;;;;;;16.17;7.22;;;19.80;32.10;;;;;;6269694;28;20041;-70
2022/03/03 14:35:04;;;;;;;16.90;6.78;;;19.80;32.20;;;;;;6270435;28;20120;-71
2022/03/03 14:38:06;;;;;;;20.10;6.93;;;19.70;32.10;;;;;;6270285;28;20044;-70
2022/03/03 14:41:07;;;;;;;15.93;7.80;;;19.70;32.20;;;;;;6269055;28;20462;-70
2022/03/03 14:44:08;;;;;;;13.95;6.35;;;19.70;32.20;;;;;;6270949;28;20047;-70
2022/03/03 14:47:09;;;;;;;14.63;6.65;;;19.70;32.20;;;;;;6268922;28;20076;-70
2022/03/03 14:50:11;;;;;;;14.68;6.55;;;19.70;32.20;;;;;;6268771;28;20040;-70
2022/03/03 14:53:12;;;;;;;13.60;5.80;;;19.70;32.00;;;;;;6252794;28;20478;-70
2022/03/03 14:56:14;;;;;;;15.27;6.50;;;19.70;31.70;;;;;;6269755;28;20044;-70
2022/03/03 14:59:15;;;;;;;14.63;5.93;;;19.70;31.60;;;;;;6259330;28;20481;-70
2022/03/03 15:02:16;;;;;;;14.38;6.82;;;19.60;31.50;;;;;;6230881;28;20025;-71
2022/03/03 15:05:18;;;;;;;14.48;7.47;;;19.60;31.40;;;;;;6274570;28;20477;-70
2022/03/03 15:08:19;;;;;;;13.77;6.50;;;19.60;31.40;;;;;;6274569;28;20036;-70
2022/03/03 15:11:19;;;;;;;16.45;7.05;;;19.60;31.30;;;;;;6272777;28;20380;-70
2022/03/03 15:14:20;;;;;;;20.92;7.20;;;19.60;31.30;;;;;;6274920;28;20033;-70
2022/03/03 15:17:22;;;;;;;18.27;6.95;;;19.50;31.20;;;;;;6273933;28;20102;-71
2022/03/03 15:20:24;;;;;;;19.17;6.40;;;19.50;31.30;;;;;;6274572;28;20072;-70
2022/03/03 15:23:25;;;;;;;26.45;6.78;;;19.50;31.50;;;;;;6257620;28;20332;-70
2022/03/03 15:26:26;;;;;;;19.05;6.72;;;19.50;31.60;;;;;;6257152;28;20050;-70
2022/03/03 15:29:27;;;;;;;14.90;5.85;;;19.50;31.80;;;;;;6257868;28;20446;-70
2022/03/03 15:32:28;;;;;;;13.07;6.40;;;19.50;31.70;;;;;;6249835;28;20041;-72
2022/03/03 15:38:49;;;;;;;12.73;6.43;;;19.50;31.80;;;;;;6273751;28;20032;-70
2022/03/03 15:41:52;;;;;;;11.38;5.70;;;19.40;31.80;;;;;;6274734;28;20413;-70
2022/03/03 15:44:52;;;;;;;16.55;6.50;;;19.40;31.90;;;;;;6273176;28;20119;-70